sensor_id;sensor_type;location;lat;lon;timestamp;P1;durP1;ratioP1;P2;durP2;ratioP2
27566;SDS011;15006;48.584;9.186;2024-03-07T00:00:07;64.75;;;36.40;;
27566;SDS011;15006;48.584;9.186;2024-03-07T00:02:45;67.03;;;37.97;;
27566;SDS011;15006;48.584;9.186;2024-03-07T00:05:13;62.42;;;37.00;;
27566;SDS011;15006;48.584;9.186;2024-03-07T00:07:41;59.53;;;36.28;;
27566;SDS011;15006;48.584;9.186;2024-03-07T00:10:07;64.55;;;37.80;;
27566;SDS011;15006;48.584;9.186;2024-03-07T00:12:35;59.85;;;35.58;;
27566;SDS011;15006;48.584;9.186;2024-03-07T00:17:33;59.45;;;35.47;;
27566;SDS011;15006;48.584;9.186;2024-03-07T00:20:00;63.28;;;36.00;;
27566;SDS011;15006;48.584;9.186;2024-03-07T00:22:30;59.85;;;35.95;;
27566;SDS011;15006;48.584;9.186;2024-03-07T00:24:56;64.22;;;36.83;;
27566;SDS011;15006;48.584;9.186;2024-03-07T00:27:22;56.88;;;34.88;;
27566;SDS011;15006;48.584;9.186;2024-03-07T00:29:49;59.85;;;36.10;;
27566;SDS011;15006;48.584;9.186;2024-03-07T00:32:22;62.45;;;35.30;;
27566;SDS011;15006;48.584;9.186;2024-03-07T00:34:49;56.70;;;33.63;;
27566;SDS011;15006;48.584;9.186;2024-03-07T00:37:16;59.05;;;35.35;;
27566;SDS011;15006;48.584;9.186;2024-03-07T00:39:42;54.75;;;33.58;;
27566;SDS011;15006;48.584;9.186;2024-03-07T00:42:08;56.38;;;35.25;;
27566;SDS011;15006;48.584;9.186;2024-03-07T00:44:35;57.42;;;34.50;;
27566;SDS011;15006;48.584;9.186;2024-03-07T00:47:01;59.33;;;35.40;;
27566;SDS011;15006;48.584;9.186;2024-03-07T00:49:28;55.40;;;34.80;;
27566;SDS011;15006;48.584;9.186;2024-03-07T00:51:55;59.85;;;35.95;;
27566;SDS011;15006;48.584;9.186;2024-03-07T00:54:23;60.10;;;36.00;;
27566;SDS011;15006;48.584;9.186;2024-03-07T00:56:49;56.00;;;35.72;;
27566;SDS011;15006;48.584;9.186;2024-03-07T00:59:15;59.40;;;35.85;;
27566;SDS011;15006;48.584;9.186;2024-03-07T01:01:41;57.83;;;35.28;;
27566;SDS011;15006;48.584;9.186;2024-03-07T01:04:08;59.28;;;36.47;;
27566;SDS011;15006;48.584;9.186;2024-03-07T01:06:34;56.47;;;36.03;;
27566;SDS011;15006;48.584;9.186;2024-03-07T01:09:06;63.58;;;37.45;;
27566;SDS011;15006;48.584;9.186;2024-03-07T01:11:39;62.05;;;37.53;;
27566;SDS011;15006;48.584;9.186;2024-03-07T01:14:13;63.92;;;37.63;;
27566;SDS011;15006;48.584;9.186;2024-03-07T01:16:39;63.53;;;36.80;;
27566;SDS011;15006;48.584;9.186;2024-03-07T01:19:05;60.50;;;38.35;;
27566;SDS011;15006;48.584;9.186;2024-03-07T01:21:35;66.60;;;38.83;;
27566;SDS011;15006;48.584;9.186;2024-03-07T01:24:01;62.65;;;38.53;;
27566;SDS011;15006;48.584;9.186;2024-03-07T01:26:28;64.55;;;40.03;;
27566;SDS011;15006;48.584;9.186;2024-03-07T01:28:54;65.85;;;39.88;;
27566;SDS011;15006;48.584;9.186;2024-03-07T01:31:24;51.30;;;30.73;;
27566;SDS011;15006;48.584;9.186;2024-03-07T01:33:50;63.22;;;40.47;;
27566;SDS011;15006;48.584;9.186;2024-03-07T01:36:16;71.18;;;41.83;;
27566;SDS011;15006;48.584;9.186;2024-03-07T01:38:43;67.28;;;41.72;;
27566;SDS011;15006;48.584;9.186;2024-03-07T01:41:10;67.55;;;41.72;;
27566;SDS011;15006;48.584;9.186;2024-03-07T01:43:36;69.32;;;43.00;;
27566;SDS011;15006;48.584;9.186;2024-03-07T01:46:02;70.68;;;41.30;;
27566;SDS011;15006;48.584;9.186;2024-03-07T01:48:28;70.03;;;44.00;;
27566;SDS011;15006;48.584;9.186;2024-03-07T01:50:57;69.32;;;43.10;;
27566;SDS011;15006;48.584;9.186;2024-03-07T01:53:24;73.45;;;43.42;;
27566;SDS011;15006;48.584;9.186;2024-03-07T01:55:53;75.75;;;44.53;;
27566;SDS011;15006;48.584;9.186;2024-03-07T01:58:21;76.68;;;45.55;;
27566;SDS011;15006;48.584;9.186;2024-03-07T02:00:49;71.97;;;44.45;;
27566;SDS011;15006;48.584;9.186;2024-03-07T02:03:16;78.60;;;45.20;;
27566;SDS011;15006;48.584;9.186;2024-03-07T02:05:42;69.63;;;42.92;;
27566;SDS011;15006;48.584;9.186;2024-03-07T02:08:10;77.25;;;45.42;;
27566;SDS011;15006;48.584;9.186;2024-03-07T02:10:36;75.88;;;45.30;;
27566;SDS011;15006;48.584;9.186;2024-03-07T02:13:03;75.90;;;46.28;;
27566;SDS011;15006;48.584;9.186;2024-03-07T02:15:29;75.95;;;45.85;;
27566;SDS011;15006;48.584;9.186;2024-03-07T02:17:55;79.28;;;47.40;;
27566;SDS011;15006;48.584;9.186;2024-03-07T02:20:23;76.88;;;46.67;;
27566;SDS011;15006;48.584;9.186;2024-03-07T02:22:50;77.57;;;46.15;;
27566;SDS011;15006;48.584;9.186;2024-03-07T02:25:16;77.32;;;47.92;;
27566;SDS011;15006;48.584;9.186;2024-03-07T02:27:42;79.80;;;47.08;;
27566;SDS011;15006;48.584;9.186;2024-03-07T02:30:10;85.43;;;48.25;;
27566;SDS011;15006;48.584;9.186;2024-03-07T02:32:37;76.43;;;47.67;;
27566;SDS011;15006;48.584;9.186;2024-03-07T02:35:04;81.63;;;49.40;;
27566;SDS011;15006;48.584;9.186;2024-03-07T02:37:31;84.68;;;48.60;;
27566;SDS011;15006;48.584;9.186;2024-03-07T02:39:57;83.18;;;49.97;;
27566;SDS011;15006;48.584;9.186;2024-03-07T02:42:23;84.53;;;50.15;;
27566;SDS011;15006;48.584;9.186;2024-03-07T02:44:49;93.57;;;50.58;;
27566;SDS011;15006;48.584;9.186;2024-03-07T02:47:15;82.88;;;48.13;;
27566;SDS011;15006;48.584;9.186;2024-03-07T02:49:41;83.55;;;49.30;;
27566;SDS011;15006;48.584;9.186;2024-03-07T02:52:07;79.80;;;49.08;;
27566;SDS011;15006;48.584;9.186;2024-03-07T02:54:33;85.05;;;48.58;;
27566;SDS011;15006;48.584;9.186;2024-03-07T02:57:00;87.93;;;49.70;;
27566;SDS011;15006;48.584;9.186;2024-03-07T02:59:26;87.60;;;50.72;;
27566;SDS011;15006;48.584;9.186;2024-03-07T03:01:52;92.38;;;50.30;;
27566;SDS011;15006;48.584;9.186;2024-03-07T03:04:18;86.28;;;50.60;;
27566;SDS011;15006;48.584;9.186;2024-03-07T03:06:45;85.78;;;50.45;;
27566;SDS011;15006;48.584;9.186;2024-03-07T03:09:12;86.95;;;51.38;;
27566;SDS011;15006;48.584;9.186;2024-03-07T03:11:43;88.95;;;51.17;;
27566;SDS011;15006;48.584;9.186;2024-03-07T03:14:12;85.25;;;50.00;;
27566;SDS011;15006;48.584;9.186;2024-03-07T03:16:43;87.35;;;51.83;;
27566;SDS011;15006;48.584;9.186;2024-03-07T03:19:09;90.10;;;51.60;;
27566;SDS011;15006;48.584;9.186;2024-03-07T03:21:36;90.55;;;51.22;;
27566;SDS011;15006;48.584;9.186;2024-03-07T03:24:03;87.90;;;51.40;;
27566;SDS011;15006;48.584;9.186;2024-03-07T03:26:29;91.05;;;52.20;;
27566;SDS011;15006;48.584;9.186;2024-03-07T03:28:57;96.28;;;53.97;;
27566;SDS011;15006;48.584;9.186;2024-03-07T03:31:23;97.70;;;54.10;;
27566;SDS011;15006;48.584;9.186;2024-03-07T03:33:50;100.40;;;53.92;;
27566;SDS011;15006;48.584;9.186;2024-03-07T03:36:17;90.63;;;51.88;;
27566;SDS011;15006;48.584;9.186;2024-03-07T03:38:44;90.28;;;51.70;;
27566;SDS011;15006;48.584;9.186;2024-03-07T03:41:14;94.18;;;51.92;;
27566;SDS011;15006;48.584;9.186;2024-03-07T03:43:42;90.28;;;51.50;;
27566;SDS011;15006;48.584;9.186;2024-03-07T03:46:11;90.72;;;52.22;;
27566;SDS011;15006;48.584;9.186;2024-03-07T03:48:38;91.35;;;50.63;;
27566;SDS011;15006;48.584;9.186;2024-03-07T03:51:09;92.82;;;52.33;;
27566;SDS011;15006;48.584;9.186;2024-03-07T03:53:38;85.95;;;49.22;;
27566;SDS011;15006;48.584;9.186;2024-03-07T03:56:04;82.90;;;47.08;;
27566;SDS011;15006;48.584;9.186;2024-03-07T03:58:31;96.05;;;49.88;;
27566;SDS011;15006;48.584;9.186;2024-03-07T04:00:57;89.53;;;48.30;;
27566;SDS011;15006;48.584;9.186;2024-03-07T04:03:24;85.15;;;48.25;;
27566;SDS011;15006;48.584;9.186;2024-03-07T04:05:50;96.15;;;53.25;;
27566;SDS011;15006;48.584;9.186;2024-03-07T04:08:16;97.25;;;54.17;;
27566;SDS011;15006;48.584;9.186;2024-03-07T04:10:44;100.63;;;56.33;;
27566;SDS011;15006;48.584;9.186;2024-03-07T04:13:10;103.20;;;57.45;;
27566;SDS011;15006;48.584;9.186;2024-03-07T04:15:36;100.03;;;55.53;;
27566;SDS011;15006;48.584;9.186;2024-03-07T04:18:02;100.95;;;55.25;;
27566;SDS011;15006;48.584;9.186;2024-03-07T04:20:28;104.93;;;55.65;;
27566;SDS011;15006;48.584;9.186;2024-03-07T04:22:54;99.22;;;54.60;;
27566;SDS011;15006;48.584;9.186;2024-03-07T04:25:21;95.13;;;53.25;;
27566;SDS011;15006;48.584;9.186;2024-03-07T04:27:47;105.55;;;56.55;;
27566;SDS011;15006;48.584;9.186;2024-03-07T04:30:14;99.38;;;55.83;;
27566;SDS011;15006;48.584;9.186;2024-03-07T04:32:41;104.07;;;57.38;;
27566;SDS011;15006;48.584;9.186;2024-03-07T04:35:08;103.60;;;55.33;;
27566;SDS011;15006;48.584;9.186;2024-03-07T04:37:38;99.47;;;54.83;;
27566;SDS011;15006;48.584;9.186;2024-03-07T04:40:06;100.65;;;55.83;;
27566;SDS011;15006;48.584;9.186;2024-03-07T04:42:41;109.63;;;56.92;;
27566;SDS011;15006;48.584;9.186;2024-03-07T04:45:13;100.95;;;55.15;;
27566;SDS011;15006;48.584;9.186;2024-03-07T04:47:41;96.68;;;53.47;;
27566;SDS011;15006;48.584;9.186;2024-03-07T04:50:10;96.00;;;52.78;;
27566;SDS011;15006;48.584;9.186;2024-03-07T04:52:37;96.50;;;53.55;;
27566;SDS011;15006;48.584;9.186;2024-03-07T04:55:08;96.80;;;53.67;;
27566;SDS011;15006;48.584;9.186;2024-03-07T04:57:36;99.72;;;55.03;;
27566;SDS011;15006;48.584;9.186;2024-03-07T05:00:07;95.30;;;54.67;;
27566;SDS011;15006;48.584;9.186;2024-03-07T05:02:46;97.82;;;52.53;;
27566;SDS011;15006;48.584;9.186;2024-03-07T05:05:15;100.78;;;55.45;;
27566;SDS011;15006;48.584;9.186;2024-03-07T05:07:47;102.63;;;55.30;;
27566;SDS011;15006;48.584;9.186;2024-03-07T05:10:15;100.78;;;54.20;;
27566;SDS011;15006;48.584;9.186;2024-03-07T05:12:41;95.88;;;52.50;;
27566;SDS011;15006;48.584;9.186;2024-03-07T05:15:07;95.97;;;52.83;;
27566;SDS011;15006;48.584;9.186;2024-03-07T05:17:36;94.85;;;52.80;;
27566;SDS011;15006;48.584;9.186;2024-03-07T05:20:05;98.00;;;55.80;;
27566;SDS011;15006;48.584;9.186;2024-03-07T05:22:36;105.50;;;53.72;;
27566;SDS011;15006;48.584;9.186;2024-03-07T05:25:18;103.35;;;53.65;;
27566;SDS011;15006;48.584;9.186;2024-03-07T05:27:45;96.50;;;52.08;;
27566;SDS011;15006;48.584;9.186;2024-03-07T05:30:11;95.15;;;51.47;;
27566;SDS011;15006;48.584;9.186;2024-03-07T05:32:38;97.25;;;51.65;;
27566;SDS011;15006;48.584;9.186;2024-03-07T05:35:05;92.85;;;49.78;;
27566;SDS011;15006;48.584;9.186;2024-03-07T05:37:32;90.55;;;49.67;;
27566;SDS011;15006;48.584;9.186;2024-03-07T05:39:58;86.57;;;47.70;;
27566;SDS011;15006;48.584;9.186;2024-03-07T05:42:25;89.43;;;48.33;;
27566;SDS011;15006;48.584;9.186;2024-03-07T05:44:51;86.47;;;47.83;;
27566;SDS011;15006;48.584;9.186;2024-03-07T05:47:19;84.47;;;46.55;;
27566;SDS011;15006;48.584;9.186;2024-03-07T05:49:45;82.43;;;44.72;;
27566;SDS011;15006;48.584;9.186;2024-03-07T05:52:11;83.32;;;45.70;;
27566;SDS011;15006;48.584;9.186;2024-03-07T05:54:38;79.35;;;45.67;;
27566;SDS011;15006;48.584;9.186;2024-03-07T05:57:04;85.28;;;47.58;;
27566;SDS011;15006;48.584;9.186;2024-03-07T05:59:33;87.25;;;47.13;;
27566;SDS011;15006;48.584;9.186;2024-03-07T06:01:59;84.40;;;47.35;;
27566;SDS011;15006;48.584;9.186;2024-03-07T06:04:25;90.97;;;47.92;;
27566;SDS011;15006;48.584;9.186;2024-03-07T06:06:51;84.57;;;48.80;;
27566;SDS011;15006;48.584;9.186;2024-03-07T06:09:18;89.82;;;49.80;;
27566;SDS011;15006;48.584;9.186;2024-03-07T06:11:47;87.80;;;48.25;;
27566;SDS011;15006;48.584;9.186;2024-03-07T06:14:14;92.07;;;50.40;;
27566;SDS011;15006;48.584;9.186;2024-03-07T06:16:41;85.15;;;48.88;;
27566;SDS011;15006;48.584;9.186;2024-03-07T06:19:08;89.45;;;46.80;;
27566;SDS011;15006;48.584;9.186;2024-03-07T06:21:36;85.20;;;47.85;;
27566;SDS011;15006;48.584;9.186;2024-03-07T06:24:06;73.72;;;44.85;;
27566;SDS011;15006;48.584;9.186;2024-03-07T06:26:34;75.47;;;43.42;;
27566;SDS011;15006;48.584;9.186;2024-03-07T06:29:14;78.53;;;45.15;;
27566;SDS011;15006;48.584;9.186;2024-03-07T06:31:44;80.70;;;42.92;;
27566;SDS011;15006;48.584;9.186;2024-03-07T06:34:14;79.32;;;44.65;;
27566;SDS011;15006;48.584;9.186;2024-03-07T06:36:40;75.15;;;42.53;;
27566;SDS011;15006;48.584;9.186;2024-03-07T06:39:06;74.88;;;41.97;;
27566;SDS011;15006;48.584;9.186;2024-03-07T06:41:33;69.97;;;42.10;;
27566;SDS011;15006;48.584;9.186;2024-03-07T06:43:59;69.10;;;41.13;;
27566;SDS011;15006;48.584;9.186;2024-03-07T06:46:26;69.47;;;42.05;;
27566;SDS011;15006;48.584;9.186;2024-03-07T06:48:52;68.65;;;40.42;;
27566;SDS011;15006;48.584;9.186;2024-03-07T06:51:19;69.82;;;40.38;;
27566;SDS011;15006;48.584;9.186;2024-03-07T06:53:45;69.20;;;40.47;;
27566;SDS011;15006;48.584;9.186;2024-03-07T06:56:15;67.38;;;40.25;;
27566;SDS011;15006;48.584;9.186;2024-03-07T06:58:42;67.82;;;39.35;;
27566;SDS011;15006;48.584;9.186;2024-03-07T07:01:10;71.10;;;40.45;;
27566;SDS011;15006;48.584;9.186;2024-03-07T07:03:40;77.68;;;44.60;;
27566;SDS011;15006;48.584;9.186;2024-03-07T07:06:08;73.47;;;40.95;;
27566;SDS011;15006;48.584;9.186;2024-03-07T07:08:35;69.32;;;41.08;;
27566;SDS011;15006;48.584;9.186;2024-03-07T07:11:01;66.05;;;39.55;;
27566;SDS011;15006;48.584;9.186;2024-03-07T07:13:29;65.85;;;39.50;;
27566;SDS011;15006;48.584;9.186;2024-03-07T07:15:55;65.55;;;39.28;;
27566;SDS011;15006;48.584;9.186;2024-03-07T07:18:21;60.45;;;37.13;;
27566;SDS011;15006;48.584;9.186;2024-03-07T07:20:49;69.80;;;38.08;;
27566;SDS011;15006;48.584;9.186;2024-03-07T07:23:17;65.00;;;38.13;;
27566;SDS011;15006;48.584;9.186;2024-03-07T07:25:45;66.15;;;38.65;;
27566;SDS011;15006;48.584;9.186;2024-03-07T07:28:11;66.38;;;38.85;;
27566;SDS011;15006;48.584;9.186;2024-03-07T07:30:38;68.60;;;39.65;;
27566;SDS011;15006;48.584;9.186;2024-03-07T07:33:04;64.60;;;39.70;;
27566;SDS011;15006;48.584;9.186;2024-03-07T07:35:30;62.10;;;38.10;;
27566;SDS011;15006;48.584;9.186;2024-03-07T07:37:58;65.90;;;39.22;;
27566;SDS011;15006;48.584;9.186;2024-03-07T07:40:25;68.28;;;39.03;;
27566;SDS011;15006;48.584;9.186;2024-03-07T07:42:52;61.17;;;38.15;;
27566;SDS011;15006;48.584;9.186;2024-03-07T07:45:20;63.70;;;38.28;;
27566;SDS011;15006;48.584;9.186;2024-03-07T07:47:48;63.03;;;39.05;;
27566;SDS011;15006;48.584;9.186;2024-03-07T07:50:17;67.15;;;39.30;;
27566;SDS011;15006;48.584;9.186;2024-03-07T07:55:28;70.80;;;39.83;;
27566;SDS011;15006;48.584;9.186;2024-03-07T07:57:55;66.57;;;40.05;;
27566;SDS011;15006;48.584;9.186;2024-03-07T08:00:23;69.88;;;40.55;;
27566;SDS011;15006;48.584;9.186;2024-03-07T08:02:58;71.18;;;42.08;;
27566;SDS011;15006;48.584;9.186;2024-03-07T08:05:30;67.20;;;40.88;;
27566;SDS011;15006;48.584;9.186;2024-03-07T08:07:59;73.82;;;40.80;;
27566;SDS011;15006;48.584;9.186;2024-03-07T08:10:31;73.40;;;42.50;;
27566;SDS011;15006;48.584;9.186;2024-03-07T08:13:01;55.10;;;32.63;;
27566;SDS011;15006;48.584;9.186;2024-03-07T08:15:29;71.00;;;41.10;;
27566;SDS011;15006;48.584;9.186;2024-03-07T08:17:56;67.63;;;40.17;;
27566;SDS011;15006;48.584;9.186;2024-03-07T08:20:23;69.65;;;40.80;;
27566;SDS011;15006;48.584;9.186;2024-03-07T08:22:51;68.63;;;41.50;;
27566;SDS011;15006;48.584;9.186;2024-03-07T08:25:19;72.63;;;41.28;;
27566;SDS011;15006;48.584;9.186;2024-03-07T08:27:50;66.93;;;40.75;;
27566;SDS011;15006;48.584;9.186;2024-03-07T08:30:18;64.28;;;39.47;;
27566;SDS011;15006;48.584;9.186;2024-03-07T08:32:45;70.10;;;41.15;;
27566;SDS011;15006;48.584;9.186;2024-03-07T08:35:13;73.18;;;41.53;;
27566;SDS011;15006;48.584;9.186;2024-03-07T08:37:42;70.15;;;41.22;;
27566;SDS011;15006;48.584;9.186;2024-03-07T08:40:11;67.13;;;39.92;;
27566;SDS011;15006;48.584;9.186;2024-03-07T08:42:47;67.85;;;40.83;;
27566;SDS011;15006;48.584;9.186;2024-03-07T08:45:21;70.88;;;41.65;;
27566;SDS011;15006;48.584;9.186;2024-03-07T08:47:48;72.47;;;42.45;;
27566;SDS011;15006;48.584;9.186;2024-03-07T08:50:16;73.00;;;40.92;;
27566;SDS011;15006;48.584;9.186;2024-03-07T08:52:46;67.22;;;40.85;;
27566;SDS011;15006;48.584;9.186;2024-03-07T08:55:14;69.70;;;40.63;;
27566;SDS011;15006;48.584;9.186;2024-03-07T08:57:50;71.47;;;41.75;;
27566;SDS011;15006;48.584;9.186;2024-03-07T09:00:16;69.60;;;41.35;;
27566;SDS011;15006;48.584;9.186;2024-03-07T09:02:50;68.65;;;42.13;;
27566;SDS011;15006;48.584;9.186;2024-03-07T09:05:23;73.00;;;43.15;;
27566;SDS011;15006;48.584;9.186;2024-03-07T09:07:50;67.55;;;41.13;;
27566;SDS011;15006;48.584;9.186;2024-03-07T09:10:17;70.00;;;41.05;;
27566;SDS011;15006;48.584;9.186;2024-03-07T09:12:45;70.15;;;42.67;;
27566;SDS011;15006;48.584;9.186;2024-03-07T09:15:13;68.75;;;42.00;;
27566;SDS011;15006;48.584;9.186;2024-03-07T09:17:41;70.20;;;42.67;;
27566;SDS011;15006;48.584;9.186;2024-03-07T09:20:08;72.68;;;42.50;;
27566;SDS011;15006;48.584;9.186;2024-03-07T09:22:46;71.22;;;42.28;;
27566;SDS011;15006;48.584;9.186;2024-03-07T09:25:13;74.53;;;42.97;;
27566;SDS011;15006;48.584;9.186;2024-03-07T09:27:39;70.85;;;42.88;;
27566;SDS011;15006;48.584;9.186;2024-03-07T09:30:07;73.45;;;43.95;;
27566;SDS011;15006;48.584;9.186;2024-03-07T09:32:40;67.50;;;41.85;;
27566;SDS011;15006;48.584;9.186;2024-03-07T09:35:07;73.43;;;42.53;;
27566;SDS011;15006;48.584;9.186;2024-03-07T09:37:38;70.57;;;42.53;;
27566;SDS011;15006;48.584;9.186;2024-03-07T09:40:07;71.95;;;42.40;;
27566;SDS011;15006;48.584;9.186;2024-03-07T09:42:47;67.60;;;41.78;;
27566;SDS011;15006;48.584;9.186;2024-03-07T09:45:17;68.93;;;42.17;;
27566;SDS011;15006;48.584;9.186;2024-03-07T09:47:46;70.10;;;42.92;;
27566;SDS011;15006;48.584;9.186;2024-03-07T09:50:15;67.85;;;41.50;;
27566;SDS011;15006;48.584;9.186;2024-03-07T09:52:44;72.75;;;42.70;;
27566;SDS011;15006;48.584;9.186;2024-03-07T09:55:12;77.40;;;43.35;;
27566;SDS011;15006;48.584;9.186;2024-03-07T09:57:38;68.28;;;40.80;;
27566;SDS011;15006;48.584;9.186;2024-03-07T10:00:07;66.20;;;42.17;;
27566;SDS011;15006;48.584;9.186;2024-03-07T10:02:43;70.20;;;41.55;;
27566;SDS011;15006;48.584;9.186;2024-03-07T10:05:12;72.10;;;41.83;;
27566;SDS011;15006;48.584;9.186;2024-03-07T10:07:42;69.70;;;42.20;;
27566;SDS011;15006;48.584;9.186;2024-03-07T10:10:08;71.43;;;41.60;;
27566;SDS011;15006;48.584;9.186;2024-03-07T10:12:40;66.55;;;41.22;;
27566;SDS011;15006;48.584;9.186;2024-03-07T10:15:06;65.93;;;40.40;;
27566;SDS011;15006;48.584;9.186;2024-03-07T10:17:35;70.63;;;41.55;;
27566;SDS011;15006;48.584;9.186;2024-03-07T10:20:02;70.22;;;40.65;;
27566;SDS011;15006;48.584;9.186;2024-03-07T10:22:29;63.08;;;40.28;;
27566;SDS011;15006;48.584;9.186;2024-03-07T10:24:55;65.30;;;40.40;;
27566;SDS011;15006;48.584;9.186;2024-03-07T10:27:22;64.03;;;40.03;;
27566;SDS011;15006;48.584;9.186;2024-03-07T10:29:49;68.05;;;40.78;;
27566;SDS011;15006;48.584;9.186;2024-03-07T10:32:21;66.93;;;41.88;;
27566;SDS011;15006;48.584;9.186;2024-03-07T10:34:53;70.63;;;42.45;;
27566;SDS011;15006;48.584;9.186;2024-03-07T10:37:19;70.90;;;41.58;;
27566;SDS011;15006;48.584;9.186;2024-03-07T10:39:46;63.08;;;38.25;;
27566;SDS011;15006;48.584;9.186;2024-03-07T10:42:15;62.95;;;38.67;;
27566;SDS011;15006;48.584;9.186;2024-03-07T10:44:45;60.10;;;37.58;;
27566;SDS011;15006;48.584;9.186;2024-03-07T10:47:16;61.63;;;36.80;;
27566;SDS011;15006;48.584;9.186;2024-03-07T10:50:04;63.33;;;38.17;;
27566;SDS011;15006;48.584;9.186;2024-03-07T10:52:54;67.72;;;38.55;;
27566;SDS011;15006;48.584;9.186;2024-03-07T11:02:02;65.90;;;38.22;;
27566;SDS011;15006;48.584;9.186;2024-03-07T11:05:03;60.63;;;35.70;;
27566;SDS011;15006;48.584;9.186;2024-03-07T11:07:37;62.70;;;36.35;;
27566;SDS011;15006;48.584;9.186;2024-03-07T11:10:04;59.83;;;35.22;;
27566;SDS011;15006;48.584;9.186;2024-03-07T11:12:37;64.20;;;37.45;;
27566;SDS011;15006;48.584;9.186;2024-03-07T11:15:06;58.90;;;35.67;;
27566;SDS011;15006;48.584;9.186;2024-03-07T11:17:43;62.78;;;34.70;;
27566;SDS011;15006;48.584;9.186;2024-03-07T11:20:24;61.95;;;35.70;;
27566;SDS011;15006;48.584;9.186;2024-03-07T11:23:00;61.15;;;35.10;;
27566;SDS011;15006;48.584;9.186;2024-03-07T11:25:28;59.72;;;35.67;;
27566;SDS011;15006;48.584;9.186;2024-03-07T11:27:55;61.75;;;35.75;;
27566;SDS011;15006;48.584;9.186;2024-03-07T11:30:27;55.08;;;34.03;;
27566;SDS011;15006;48.584;9.186;2024-03-07T11:32:54;59.42;;;35.30;;
27566;SDS011;15006;48.584;9.186;2024-03-07T11:35:20;59.65;;;34.72;;
27566;SDS011;15006;48.584;9.186;2024-03-07T11:37:58;56.45;;;33.40;;
27566;SDS011;15006;48.584;9.186;2024-03-07T11:42:51;60.03;;;34.22;;
27566;SDS011;15006;48.584;9.186;2024-03-07T11:45:19;61.35;;;35.88;;
27566;SDS011;15006;48.584;9.186;2024-03-07T11:47:55;60.13;;;34.08;;
27566;SDS011;15006;48.584;9.186;2024-03-07T11:50:25;56.57;;;33.93;;
27566;SDS011;15006;48.584;9.186;2024-03-07T11:52:52;52.72;;;32.15;;
27566;SDS011;15006;48.584;9.186;2024-03-07T11:55:20;52.70;;;31.90;;
27566;SDS011;15006;48.584;9.186;2024-03-07T11:57:47;53.95;;;31.48;;
27566;SDS011;15006;48.584;9.186;2024-03-07T12:00:17;52.65;;;31.45;;
27566;SDS011;15006;48.584;9.186;2024-03-07T12:02:44;49.75;;;31.08;;
27566;SDS011;15006;48.584;9.186;2024-03-07T12:05:11;53.40;;;31.90;;
27566;SDS011;15006;48.584;9.186;2024-03-07T12:07:41;47.97;;;30.52;;
27566;SDS011;15006;48.584;9.186;2024-03-07T12:10:08;50.63;;;30.67;;
27566;SDS011;15006;48.584;9.186;2024-03-07T12:12:35;54.38;;;30.45;;
27566;SDS011;15006;48.584;9.186;2024-03-07T12:15:05;46.55;;;29.83;;
27566;SDS011;15006;48.584;9.186;2024-03-07T12:17:41;53.58;;;31.70;;
27566;SDS011;15006;48.584;9.186;2024-03-07T12:20:08;48.00;;;30.60;;
27566;SDS011;15006;48.584;9.186;2024-03-07T12:22:50;52.30;;;31.75;;
27566;SDS011;15006;48.584;9.186;2024-03-07T12:25:19;54.30;;;32.40;;
27566;SDS011;15006;48.584;9.186;2024-03-07T12:33:12;50.83;;;30.33;;
27566;SDS011;15006;48.584;9.186;2024-03-07T12:38:18;55.03;;;30.63;;
27566;SDS011;15006;48.584;9.186;2024-03-07T12:40:46;55.20;;;32.65;;
27566;SDS011;15006;48.584;9.186;2024-03-07T12:43:13;52.60;;;31.35;;
27566;SDS011;15006;48.584;9.186;2024-03-07T12:48:13;53.35;;;32.90;;
27566;SDS011;15006;48.584;9.186;2024-03-07T12:50:40;56.53;;;34.00;;
27566;SDS011;15006;48.584;9.186;2024-03-07T12:53:06;56.45;;;35.10;;
27566;SDS011;15006;48.584;9.186;2024-03-07T12:58:07;56.53;;;34.47;;
27566;SDS011;15006;48.584;9.186;2024-03-07T13:00:37;56.63;;;36.80;;
27566;SDS011;15006;48.584;9.186;2024-03-07T13:03:04;62.60;;;37.78;;
27566;SDS011;15006;48.584;9.186;2024-03-07T13:05:30;60.53;;;37.65;;
27566;SDS011;15006;48.584;9.186;2024-03-07T13:07:57;60.03;;;37.78;;
27566;SDS011;15006;48.584;9.186;2024-03-07T13:10:23;58.85;;;36.45;;
27566;SDS011;15006;48.584;9.186;2024-03-07T13:12:49;59.45;;;37.30;;
27566;SDS011;15006;48.584;9.186;2024-03-07T13:15:17;57.10;;;37.08;;
27566;SDS011;15006;48.584;9.186;2024-03-07T13:17:43;58.45;;;37.20;;
27566;SDS011;15006;48.584;9.186;2024-03-07T13:20:11;58.80;;;36.97;;
27566;SDS011;15006;48.584;9.186;2024-03-07T13:22:41;54.95;;;35.83;;
27566;SDS011;15006;48.584;9.186;2024-03-07T13:25:12;61.53;;;37.40;;
27566;SDS011;15006;48.584;9.186;2024-03-07T13:27:52;61.00;;;38.17;;
27566;SDS011;15006;48.584;9.186;2024-03-07T13:30:27;57.38;;;37.78;;
27566;SDS011;15006;48.584;9.186;2024-03-07T13:32:57;59.50;;;38.17;;
27566;SDS011;15006;48.584;9.186;2024-03-07T13:35:24;57.55;;;38.20;;
27566;SDS011;15006;48.584;9.186;2024-03-07T13:37:52;59.97;;;38.42;;
27566;SDS011;15006;48.584;9.186;2024-03-07T13:40:22;59.25;;;38.65;;
27566;SDS011;15006;48.584;9.186;2024-03-07T13:42:51;66.60;;;40.50;;
27566;SDS011;15006;48.584;9.186;2024-03-07T13:45:26;66.45;;;40.05;;
27566;SDS011;15006;48.584;9.186;2024-03-07T13:47:55;67.30;;;39.58;;
27566;SDS011;15006;48.584;9.186;2024-03-07T13:50:24;65.72;;;39.97;;
27566;SDS011;15006;48.584;9.186;2024-03-07T13:52:54;64.90;;;40.55;;
27566;SDS011;15006;48.584;9.186;2024-03-07T14:05:59;67.03;;;41.15;;
27566;SDS011;15006;48.584;9.186;2024-03-07T14:08:39;65.55;;;40.47;;
27566;SDS011;15006;48.584;9.186;2024-03-07T14:11:54;62.85;;;40.92;;
27566;SDS011;15006;48.584;9.186;2024-03-07T14:21:52;61.40;;;39.20;;
27566;SDS011;15006;48.584;9.186;2024-03-07T14:33:29;61.97;;;40.13;;
27566;SDS011;15006;48.584;9.186;2024-03-07T14:36:15;65.68;;;39.95;;
27566;SDS011;15006;48.584;9.186;2024-03-07T14:38:52;61.45;;;40.08;;
27566;SDS011;15006;48.584;9.186;2024-03-07T14:41:42;61.90;;;40.40;;
27566;SDS011;15006;48.584;9.186;2024-03-07T14:44:19;58.92;;;38.28;;
27566;SDS011;15006;48.584;9.186;2024-03-07T14:46:48;60.70;;;38.70;;
27566;SDS011;15006;48.584;9.186;2024-03-07T14:49:26;61.05;;;39.47;;
27566;SDS011;15006;48.584;9.186;2024-03-07T14:51:53;59.38;;;38.53;;
27566;SDS011;15006;48.584;9.186;2024-03-07T14:54:22;58.90;;;37.75;;
27566;SDS011;15006;48.584;9.186;2024-03-07T14:56:48;62.78;;;38.75;;
27566;SDS011;15006;48.584;9.186;2024-03-07T14:59:15;55.15;;;37.88;;
27566;SDS011;15006;48.584;9.186;2024-03-07T15:01:42;59.00;;;37.35;;
27566;SDS011;15006;48.584;9.186;2024-03-07T15:04:09;60.80;;;40.00;;
27566;SDS011;15006;48.584;9.186;2024-03-07T15:06:39;57.72;;;38.17;;
27566;SDS011;15006;48.584;9.186;2024-03-07T15:11:35;57.45;;;36.67;;
27566;SDS011;15006;48.584;9.186;2024-03-07T15:14:05;57.30;;;38.72;;
27566;SDS011;15006;48.584;9.186;2024-03-07T15:16:35;56.92;;;38.47;;
27566;SDS011;15006;48.584;9.186;2024-03-07T15:19:06;63.45;;;37.90;;
27566;SDS011;15006;48.584;9.186;2024-03-07T15:21:34;64.57;;;39.55;;
27566;SDS011;15006;48.584;9.186;2024-03-07T15:24:03;59.10;;;39.67;;
27566;SDS011;15006;48.584;9.186;2024-03-07T15:26:29;57.90;;;40.05;;